Time;durP1;ratioP1;P1;durP2;ratioP2;P2;SDS_P1;SDS_P2;PMS_P1;PMS_P2;Temp;Humidity;BMP_temperature;BMP_pressure;BME280_temperature;BME280_humidity;BME280_pressure;Samples;Min_cycle;Max_cycle;Signal;HPM_P1;HPM_P2
2024/03/15 00:03:53;;;;;;;8.10;4.03;;;;;12.90;100213.00;;;;9965134;29;20229;-81
2024/03/15 00:08:55;;;;;;;9.82;3.50;;;;;13.00;100228.00;;;;9979487;29;20240;-82
2024/03/15 00:13:56;;;;;;;7.78;3.53;;;;;13.10;100223.00;;;;9958727;29;20243;-80
2024/03/15 00:18:58;;;;;;;4.47;3.85;;;;;13.20;100219.00;;;;9973465;29;20232;-81
2024/03/15 00:23:59;;;;;;;5.97;3.95;;;;;13.30;100218.00;;;;9953283;29;20820;-81
2024/03/15 00:29:03;;;;;;;5.03;3.10;;;;;13.30;100220.00;;;;9946339;29;20244;-81
2024/03/15 00:34:04;;;;;;;4.93;3.22;;;;;13.20;100213.00;;;;9948535;29;20222;-80
2024/03/15 00:39:05;;;;;;;6.18;3.17;;;;;13.30;100208.00;;;;9967936;29;20900;-81
2024/03/15 00:44:07;;;;;;;4.53;3.17;;;;;13.20;100216.00;;;;9948455;29;20237;-82
2024/03/15 00:49:10;;;;;;;5.22;3.17;;;;;13.10;100206.00;;;;9975951;29;20237;-81
2024/03/15 00:54:12;;;;;;;9.30;3.85;;;;;13.10;100209.00;;;;10016448;29;20282;-81
2024/03/15 00:59:14;;;;;;;5.25;3.25;;;;;13.10;100212.00;;;;9984096;29;20278;-80
2024/03/15 01:04:15;;;;;;;5.97;3.37;;;;;13.20;100218.00;;;;9987103;29;20260;-80
2024/03/15 01:09:16;;;;;;;7.28;3.15;;;;;13.30;100203.00;;;;9971509;29;20238;-81
2024/03/15 01:14:18;;;;;;;4.03;3.33;;;;;13.40;100208.00;;;;9980670;29;20237;-81
2024/03/15 01:19:19;;;;;;;5.50;3.45;;;;;13.40;100201.00;;;;9973052;29;20896;-80
2024/03/15 01:24:20;;;;;;;5.05;3.45;;;;;13.50;100198.00;;;;9966133;29;20241;-80
2024/03/15 01:29:23;;;;;;;8.77;3.47;;;;;13.60;100204.00;;;;9991806;29;20236;-80
2024/03/15 01:34:24;;;;;;;6.85;3.45;;;;;13.70;100203.00;;;;9971068;29;20329;-79
2024/03/15 01:39:25;;;;;;;5.18;3.63;;;;;13.70;100203.00;;;;9994880;29;20294;-80
2024/03/15 01:44:42;;;;;;;8.85;4.05;;;;;13.80;100192.00;;;;9967276;29;20230;-80
2024/03/15 01:49:43;;;;;;;7.43;3.35;;;;;13.80;100188.00;;;;9957862;29;20266;-80
2024/03/15 01:54:44;;;;;;;6.28;3.47;;;;;13.80;100189.00;;;;9978349;29;20229;-81
2024/03/15 01:59:46;;;;;;;6.82;3.30;;;;;13.70;100193.00;;;;9964400;29;20230;-81
2024/03/15 02:04:53;;;;;;;6.78;4.05;;;;;13.70;100190.00;;;;9973203;29;20597;-81
2024/03/15 02:09:55;;;;;;;4.40;3.47;;;;;13.60;100182.00;;;;9953870;29;20271;-83
2024/03/15 02:14:57;;;;;;;7.43;3.70;;;;;13.60;100189.00;;;;9980383;29;20613;-84
2024/03/15 02:19:58;;;;;;;6.25;4.18;;;;;13.60;100183.00;;;;9958205;29;20217;-84
2024/03/15 02:25:00;;;;;;;5.23;3.20;;;;;13.60;100178.00;;;;9980781;29;20804;-84
2024/03/15 02:30:02;;;;;;;5.40;3.65;;;;;13.60;100192.00;;;;9974976;29;20238;-82
2024/03/15 02:35:07;;;;;;;9.32;3.85;;;;;13.50;100189.00;;;;10004561;29;20233;-85
2024/03/15 02:40:24;;;;;;;6.68;3.95;;;;;13.30;100190.00;;;;9979687;29;20234;-83
2024/03/15 02:45:26;;;;;;;6.18;3.80;;;;;13.30;100190.00;;;;9971525;29;20298;-84
2024/03/15 02:50:27;;;;;;;6.13;3.95;;;;;13.20;100198.00;;;;9985596;29;20236;-83
2024/03/15 02:55:28;;;;;;;5.43;3.60;;;;;13.20;100210.00;;;;9962159;29;20701;-83
2024/03/15 03:00:31;;;;;;;8.15;3.60;;;;;13.20;100199.00;;;;9985166;29;20317;-84
2024/03/15 03:05:32;;;;;;;9.93;4.50;;;;;13.30;100206.00;;;;10003323;29;20245;-84
2024/03/15 03:10:33;;;;;;;6.30;3.60;;;;;13.30;100206.00;;;;9963512;29;20234;-84
2024/03/15 03:15:34;;;;;;;6.03;3.35;;;;;13.20;100205.00;;;;9996151;29;20273;-84
2024/03/15 03:20:36;;;;;;;7.07;3.73;;;;;13.20;100216.00;;;;9986871;29;20292;-82
2024/03/15 03:25:37;;;;;;;7.47;3.00;;;;;13.20;100216.00;;;;9964876;29;20764;-81
2024/03/15 03:30:38;;;;;;;4.93;3.00;;;;;13.20;100208.00;;;;9970669;29;20253;-80
2024/03/15 03:35:42;;;;;;;7.43;3.20;;;;;13.20;100205.00;;;;9962530;29;20235;-80
2024/03/15 03:40:43;;;;;;;4.57;3.07;;;;;13.20;100213.00;;;;9999619;29;20270;-81
2024/03/15 03:45:47;;;;;;;4.18;2.90;;;;;13.20;100210.00;;;;9970712;29;20241;-80
2024/03/15 03:50:48;;;;;;;7.32;3.28;;;;;13.10;100211.00;;;;9986693;29;20805;-81
2024/03/15 03:55:49;;;;;;;3.78;2.92;;;;;13.10;100226.00;;;;9974270;29;20241;-81
2024/03/15 04:00:50;;;;;;;4.88;2.67;;;;;13.10;100220.00;;;;9981183;29;20746;-81
2024/03/15 04:05:52;;;;;;;5.07;3.50;;;;;13.10;100213.00;;;;9971109;29;20237;-82
2024/03/15 04:10:53;;;;;;;5.25;2.83;;;;;13.20;100212.00;;;;9963368;29;20248;-82
2024/03/15 04:15:57;;;;;;;6.37;3.20;;;;;13.20;100219.00;;;;9981463;29;20240;-81
2024/03/15 04:20:59;;;;;;;5.57;3.15;;;;;13.20;100214.00;;;;9965798;29;20864;-80
2024/03/15 04:26:01;;;;;;;5.28;3.25;;;;;13.20;100214.00;;;;10026410;29;20233;-81
2024/03/15 04:31:05;;;;;;;5.68;3.00;;;;;13.20;100229.00;;;;9987984;29;20259;-84
2024/03/15 04:36:06;;;;;;;4.63;2.80;;;;;13.20;100226.00;;;;9968731;29;20991;-84
2024/03/15 04:41:10;;;;;;;6.38;2.58;;;;;13.20;100217.00;;;;9973699;29;20241;-84
2024/03/15 04:46:12;;;;;;;5.03;2.67;;;;;13.20;100225.00;;;;9958537;29;20243;-84
2024/03/15 04:51:13;;;;;;;8.57;3.10;;;;;13.20;100225.00;;;;9975700;29;20296;-84
2024/03/15 04:56:14;;;;;;;5.37;2.40;;;;;13.20;100220.00;;;;10002157;29;20241;-84
2024/03/15 05:01:16;;;;;;;5.90;2.58;;;;;13.20;100229.00;;;;9976757;29;20232;-83
2024/03/15 05:06:17;;;;;;;6.95;3.08;;;;;13.20;100226.00;;;;9972758;29;20237;-84
2024/03/15 05:11:28;;;;;;;5.33;2.60;;;;;13.20;100232.00;;;;9980899;29;20711;-83
2024/03/15 05:16:29;;;;;;;4.07;2.53;;;;;13.20;100219.00;;;;9989298;29;20259;-84
2024/03/15 05:21:30;;;;;;;6.18;3.05;;;;;13.20;100221.00;;;;9989146;29;20266;-83
2024/03/15 05:26:32;;;;;;;5.90;2.83;;;;;13.20;100222.00;;;;9999240;29;20245;-84
2024/03/15 05:31:33;;;;;;;5.88;2.40;;;;;13.20;100227.00;;;;9946904;29;20257;-83
2024/03/15 05:36:35;;;;;;;4.75;2.25;;;;;13.10;100226.00;;;;9970989;29;20324;-83
2024/03/15 05:41:39;;;;;;;4.15;2.40;;;;;13.00;100234.00;;;;9993150;29;20241;-85
2024/03/15 05:46:42;;;;;;;3.30;2.05;;;;;13.00;100226.00;;;;9988370;29;20250;-87
2024/03/15 05:51:43;;;;;;;4.23;2.30;;;;;13.10;100233.00;;;;9982763;29;20230;-86
2024/03/15 05:56:44;;;;;;;6.07;2.20;;;;;13.00;100224.00;;;;10015475;29;20850;-86
2024/03/15 06:01:46;;;;;;;2.65;2.15;;;;;12.90;100230.00;;;;9984892;29;20237;-87
2024/03/15 06:06:47;;;;;;;5.73;2.37;;;;;13.00;100229.00;;;;9970548;29;20695;-86
2024/03/15 06:11:49;;;;;;;5.50;2.20;;;;;13.00;100224.00;;;;9967621;29;20275;-87
2024/03/15 06:16:50;;;;;;;5.87;2.43;;;;;13.00;100219.00;;;;10004349;29;20229;-87
2024/03/15 06:21:53;;;;;;;4.53;2.43;;;;;13.10;100248.00;;;;9993407;29;20236;-85
2024/03/15 06:26:54;;;;;;;4.27;2.00;;;;;13.10;100240.00;;;;9966194;29;20316;-86
2024/03/15 06:31:59;;;;;;;3.43;2.47;;;;;13.10;100257.00;;;;9952261;29;20306;-88
2024/03/15 06:37:05;;;;;;;8.33;2.30;;;;;13.10;100251.00;;;;9983298;29;20370;-87
2024/03/15 06:42:20;;;;;;;6.10;2.83;;;;;13.20;100263.00;;;;9957082;29;20316;-84
2024/03/15 06:47:28;;;;;;;5.65;2.33;;;;;13.30;100276.00;;;;9947356;29;20232;-85
2024/03/15 06:52:34;;;;;;;6.13;2.25;;;;;13.40;100265.00;;;;9972383;29;20225;-86
2024/03/15 06:57:37;;;;;;;6.63;2.42;;;;;13.80;100254.00;;;;9957623;29;20841;-85
2024/03/15 07:02:42;;;;;;;4.30;2.17;;;;;13.90;100265.00;;;;9966582;29;20237;-85
2024/03/15 07:07:45;;;;;;;5.13;2.22;;;;;14.10;100265.00;;;;9977633;29;20285;-84
2024/03/15 07:12:49;;;;;;;3.45;2.03;;;;;14.20;100270.00;;;;9952709;29;20230;-87
2024/03/15 07:17:50;;;;;;;4.57;2.10;;;;;14.30;100265.00;;;;9961234;29;20278;-87
2024/03/15 07:22:52;;;;;;;5.38;1.83;;;;;14.20;100266.00;;;;9968274;29;20230;-87
2024/03/15 07:27:56;;;;;;;8.32;2.80;;;;;14.30;100271.00;;;;9993960;29;20292;-87
2024/03/15 07:32:58;;;;;;;5.28;2.10;;;;;14.50;100274.00;;;;9990801;29;20241;-83
2024/03/15 07:37:59;;;;;;;3.42;1.90;;;;;14.80;100269.00;;;;9962858;29;20240;-86
2024/03/15 07:43:02;;;;;;;2.40;1.77;;;;;15.10;100256.00;;;;9966109;29;20852;-86
2024/03/15 07:48:04;;;;;;;4.80;2.20;;;;;15.70;100264.00;;;;9964778;29;20226;-85
2024/03/15 07:53:05;;;;;;;3.75;2.20;;;;;15.80;100279.00;;;;9954482;29;20289;-84
2024/03/15 07:58:06;;;;;;;5.30;2.15;;;;;15.40;100288.00;;;;9959557;29;20373;-82
2024/03/15 08:03:07;;;;;;;6.25;2.30;;;;;15.50;100291.00;;;;9956766;29;20846;-83
2024/03/15 08:08:09;;;;;;;6.85;1.95;;;;;15.20;100315.00;;;;9957047;29;20236;-83
2024/03/15 08:13:12;;;;;;;3.80;1.98;;;;;14.80;100318.00;;;;9967036;29;20313;-83
2024/03/15 08:18:14;;;;;;;3.63;2.15;;;;;14.70;100321.00;;;;9945835;29;20225;-84
2024/03/15 08:23:15;;;;;;;3.95;1.67;;;;;14.60;100336.00;;;;9956515;29;20317;-82
2024/03/15 08:28:16;;;;;;;3.17;1.50;;;;;14.80;100342.00;;;;9957655;29;20633;-82
2024/03/15 08:33:20;;;;;;;4.97;1.92;;;;;15.20;100322.00;;;;9973885;29;20240;-82
2024/03/15 08:38:22;;;;;;;4.18;1.80;;;;;15.40;100315.00;;;;9954922;29;20230;-82
2024/03/15 08:43:23;;;;;;;4.25;1.58;;;;;16.10;100320.00;;;;9971377;29;20260;-83
2024/03/15 08:48:27;;;;;;;5.70;1.60;;;;;16.90;100310.00;;;;9976447;29;20265;-83
2024/03/15 08:53:29;;;;;;;5.57;2.00;;;;;16.90;100316.00;;;;9958988;29;20279;-83
2024/03/15 08:58:31;;;;;;;3.42;1.70;;;;;16.90;100308.00;;;;9965635;29;20237;-83
2024/03/15 09:03:35;;;;;;;3.17;1.92;;;;;16.50;100309.00;;;;9970654;29;20732;-83
2024/03/15 09:08:42;;;;;;;7.00;1.55;;;;;16.40;100302.00;;;;9951607;29;20696;-82
2024/03/15 09:13:43;;;;;;;5.57;1.65;;;;;16.40;100304.00;;;;9965201;29;20240;-83
2024/03/15 09:18:52;;;;;;;3.42;1.52;;;;;16.60;100322.00;;;;9968079;29;20683;-83
2024/03/15 09:23:53;;;;;;;3.03;1.60;;;;;16.90;100310.00;;;;9968704;29;20241;-83
2024/03/15 09:28:57;;;;;;;4.85;2.00;;;;;17.80;100297.00;;;;9968567;29;20237;-82
2024/03/15 09:34:01;;;;;;;3.50;1.52;;;;;18.30;100309.00;;;;9948517;29;20673;-83
2024/03/15 09:39:02;;;;;;;3.83;2.00;;;;;18.20;100309.00;;;;9950900;29;20288;-83
2024/03/15 09:44:06;;;;;;;5.82;1.40;;;;;17.70;100318.00;;;;9966512;29;20245;-82
2024/03/15 09:49:12;;;;;;;7.70;1.73;;;;;18.00;100312.00;;;;9946997;29;20289;-84
2024/03/15 09:54:13;;;;;;;1.75;1.20;;;;;18.10;100307.00;;;;9978050;29;20230;-82
2024/03/15 09:59:22;;;;;;;5.72;1.25;;;;;18.70;100298.00;;;;9976708;29;20237;-83
2024/03/15 10:04:25;;;;;;;4.72;1.70;;;;;18.20;100306.00;;;;9963987;29;20241;-82
2024/03/15 10:09:26;;;;;;;7.88;1.65;;;;;16.90;100316.00;;;;9964960;29;20241;-83
2024/03/15 10:14:28;;;;;;;5.88;1.40;;;;;17.10;100320.00;;;;9979285;29;20907;-82
2024/03/15 10:19:30;;;;;;;5.18;1.38;;;;;18.00;100316.00;;;;9966786;29;20245;-85
2024/03/15 10:24:32;;;;;;;5.63;1.30;;;;;19.10;100314.00;;;;9957059;29;20246;-84
2024/03/15 10:29:33;;;;;;;5.10;1.30;;;;;19.20;100312.00;;;;9969332;29;20233;-84
2024/03/15 10:34:35;;;;;;;5.00;1.50;;;;;18.90;100315.00;;;;9991628;29;20264;-84
2024/03/15 10:39:36;;;;;;;2.53;1.08;;;;;19.10;100326.00;;;;9980913;29;20233;-84
2024/03/15 10:44:39;;;;;;;4.65;1.10;;;;;19.20;100326.00;;;;9987256;29;20240;-84
2024/03/15 10:49:41;;;;;;;3.92;1.10;;;;;18.80;100322.00;;;;9960650;29;20973;-83
2024/03/15 10:54:43;;;;;;;6.30;1.15;;;;;18.90;100322.00;;;;9959778;29;20245;-84
2024/03/15 10:59:44;;;;;;;6.05;1.25;;;;;19.30;100321.00;;;;9961484;29;20348;-84
2024/03/15 11:04:46;;;;;;;4.10;1.13;;;;;19.60;100322.00;;;;9962211;29;20716;-84
2024/03/15 11:09:47;;;;;;;3.85;1.33;;;;;20.40;100309.00;;;;9975332;29;20240;-86
2024/03/15 11:14:50;;;;;;;4.68;1.38;;;;;20.70;100333.00;;;;9965530;29;20592;-85
2024/03/15 11:19:53;;;;;;;5.65;1.75;;;;;19.80;100319.00;;;;9983216;29;20230;-84
2024/03/15 11:24:58;;;;;;;3.13;1.38;;;;;20.00;100326.00;;;;9963601;29;20242;-85
2024/03/15 11:30:01;;;;;;;4.20;1.30;;;;;19.60;100310.00;;;;9972639;29;20242;-82
2024/03/15 11:35:04;;;;;;;3.85;1.10;;;;;19.50;100316.00;;;;9962466;29;20237;-81
2024/03/15 11:40:06;;;;;;;5.07;1.45;;;;;19.20;100306.00;;;;9973369;29;20282;-80
2024/03/15 11:45:12;;;;;;;5.63;1.38;;;;;20.60;100306.00;;;;9964794;29;20390;-80
2024/03/15 11:50:14;;;;;;;6.75;1.63;;;;;18.80;100340.00;;;;9984793;29;20919;-81
2024/03/15 11:55:17;;;;;;;1.70;0.47;;;;;15.90;100380.00;;;;9955963;29;20226;-80
2024/03/15 12:00:23;;;;;;;5.95;0.90;;;;;14.10;100379.00;;;;9944240;29;21139;-79
2024/03/15 12:05:25;;;;;;;3.05;0.80;;;;;13.40;100397.00;;;;9973315;29;20238;-79
2024/03/15 12:10:26;;;;;;;6.40;1.60;;;;;13.10;100401.00;;;;9971818;29;20240;-79
2024/03/15 12:15:29;;;;;;;2.38;0.98;;;;;12.70;100407.00;;;;9986053;29;20266;-80
2024/03/15 12:20:31;;;;;;;5.05;1.17;;;;;12.60;100363.00;;;;9968390;29;20319;-81
2024/03/15 12:25:32;;;;;;;5.70;1.63;;;;;13.40;100370.00;;;;9972791;29;20242;-80
2024/03/15 12:30:34;;;;;;;5.85;2.05;;;;;13.50;100372.00;;;;9954460;29;20241;-80
2024/03/15 12:35:36;;;;;;;7.18;2.53;;;;;13.70;100350.00;;;;9953173;29;20233;-78
2024/03/15 12:40:42;;;;;;;5.80;2.58;;;;;14.30;100339.00;;;;10003659;29;20260;-85
2024/03/15 12:45:43;;;;;;;7.30;1.92;;;;;14.80;100335.00;;;;9959668;29;20699;-82
2024/03/15 12:50:45;;;;;;;9.20;2.10;;;;;14.80;100321.00;;;;9959293;29;20256;-83
2024/03/15 12:55:46;;;;;;;7.55;1.70;;;;;14.40;100320.00;;;;9987690;29;20268;-82
2024/03/15 13:00:49;;;;;;;5.90;1.80;;;;;14.10;100321.00;;;;9959856;29;20327;-82
2024/03/15 13:05:51;;;;;;;5.93;1.90;;;;;13.80;100338.00;;;;9976869;29;20230;-81
2024/03/15 13:10:53;;;;;;;7.68;2.35;;;;;13.60;100346.00;;;;9984542;29;20224;-81
2024/03/15 13:15:54;;;;;;;7.28;2.22;;;;;13.50;100346.00;;;;9986779;29;20798;-81
2024/03/15 13:20:55;;;;;;;7.88;2.28;;;;;13.60;100345.00;;;;9982792;29;20222;-82
2024/03/15 13:25:58;;;;;;;6.75;1.73;;;;;13.80;100343.00;;;;9951790;29;20238;-81
2024/03/15 13:30:59;;;;;;;5.55;1.75;;;;;14.10;100346.00;;;;9970708;29;20252;-81
2024/03/15 13:36:01;;;;;;;4.55;1.65;;;;;14.30;100351.00;;;;9976311;29;20665;-81
2024/03/15 13:41:04;;;;;;;8.07;1.58;;;;;13.60;100343.00;;;;9991022;29;20238;-83
2024/03/15 13:46:12;;;;;;;5.05;1.50;;;;;12.80;100337.00;;;;9979775;29;20233;-84
2024/03/15 13:51:13;;;;;;;3.17;1.40;;;;;12.60;100347.00;;;;9970262;29;20321;-85
2024/03/15 13:56:16;;;;;;;5.68;1.40;;;;;12.60;100360.00;;;;9957197;29;20598;-87
2024/03/15 14:01:21;;;;;;;7.95;2.10;;;;;12.70;100348.00;;;;9950586;29;20229;-85
2024/03/15 14:06:23;;;;;;;3.70;2.08;;;;;12.60;100345.00;;;;9951345;29;20230;-85
2024/03/15 14:11:24;;;;;;;8.63;2.33;;;;;13.00;100332.00;;;;9967752;29;20225;-84
2024/03/15 14:16:25;;;;;;;7.75;2.22;;;;;13.40;100326.00;;;;9976960;29;20704;-85
2024/03/15 14:21:27;;;;;;;7.22;1.90;;;;;13.70;100301.00;;;;9964500;29;20221;-85
2024/03/15 14:26:28;;;;;;;8.82;2.55;;;;;13.90;100308.00;;;;9949593;29;20929;-83
2024/03/15 14:31:29;;;;;;;4.72;2.25;;;;;14.10;100304.00;;;;9964301;29;20225;-82
2024/03/15 14:36:31;;;;;;;7.55;2.00;;;;;14.10;100291.00;;;;9962425;29;20275;-83
2024/03/15 14:41:32;;;;;;;6.07;2.10;;;;;14.00;100297.00;;;;9981576;29;20249;-83
2024/03/15 14:46:35;;;;;;;5.85;1.83;;;;;14.00;100305.00;;;;9967522;29;20245;-84
2024/03/15 14:51:36;;;;;;;4.53;1.98;;;;;13.90;100304.00;;;;9956698;29;20317;-82
2024/03/15 14:56:37;;;;;;;9.38;2.20;;;;;13.90;100320.00;;;;9975666;29;20324;-82
2024/03/15 15:01:38;;;;;;;4.07;1.98;;;;;13.80;100339.00;;;;9963820;29;20271;-80
2024/03/15 15:06:40;;;;;;;7.53;1.88;;;;;13.70;100324.00;;;;9987640;29;20237;-81
2024/03/15 15:11:41;;;;;;;5.57;1.95;;;;;14.70;100315.00;;;;9984619;29;20232;-81
2024/03/15 15:16:43;;;;;;;4.97;1.60;;;;;15.00;100299.00;;;;9969329;29;20233;-80
2024/03/15 15:21:45;;;;;;;7.20;1.77;;;;;14.80;100298.00;;;;9969043;29;20255;-80
2024/03/15 15:26:46;;;;;;;5.85;2.03;;;;;14.60;100296.00;;;;9961123;29;20241;-80
2024/03/15 15:31:47;;;;;;;5.82;1.63;;;;;14.60;100296.00;;;;9962645;29;20237;-80
2024/03/15 15:36:51;;;;;;;7.03;2.08;;;;;14.60;100301.00;;;;9996025;29;20777;-80
2024/03/15 15:41:54;;;;;;;7.13;2.10;;;;;14.40;100302.00;;;;9948245;29;20233;-80
2024/03/15 15:46:55;;;;;;;5.63;2.45;;;;;14.50;100305.00;;;;9970714;29;20325;-81
2024/03/15 15:52:02;;;;;;;8.88;2.42;;;;;14.50;100298.00;;;;9994716;29;20692;-80
2024/03/15 15:57:04;;;;;;;7.60;2.55;;;;;14.50;100318.00;;;;9966896;29;20932;-80
2024/03/15 16:02:05;;;;;;;5.35;1.80;;;;;14.70;100325.00;;;;9958850;29;20233;-80
2024/03/15 16:07:07;;;;;;;10.82;2.13;;;;;14.70;100317.00;;;;9976732;29;20826;-82
2024/03/15 16:12:08;;;;;;;11.25;2.63;;;;;14.80;100320.00;;;;9959795;29;20225;-80
2024/03/15 16:17:12;;;;;;;6.80;2.20;;;;;14.70;100317.00;;;;9973822;29;20229;-80
2024/03/15 16:22:13;;;;;;;6.88;1.65;;;;;14.30;100332.00;;;;9952390;29;20316;-81
2024/03/15 16:27:15;;;;;;;9.77;1.90;;;;;14.00;100343.00;;;;9993592;29;20301;-81
2024/03/15 16:32:16;;;;;;;8.93;2.25;;;;;13.90;100341.00;;;;9959693;29;20308;-82
2024/03/15 16:37:17;;;;;;;8.80;2.17;;;;;13.50;100339.00;;;;9971455;29;20264;-82
2024/03/15 16:42:19;;;;;;;7.18;2.10;;;;;13.30;100333.00;;;;9959310;29;20319;-81
2024/03/15 16:47:20;;;;;;;7.80;2.00;;;;;13.30;100347.00;;;;9969390;29;20248;-82
2024/03/15 16:52:22;;;;;;;11.43;2.78;;;;;13.10;100345.00;;;;9963255;29;20308;-82
2024/03/15 16:57:23;;;;;;;14.35;2.03;;;;;13.00;100352.00;;;;9945137;29;20234;-82
2024/03/15 17:02:25;;;;;;;7.43;1.95;;;;;12.80;100350.00;;;;9951980;29;20253;-82
2024/03/15 17:07:27;;;;;;;14.13;2.87;;;;;12.80;100347.00;;;;9984574;29;20911;-83
2024/03/15 17:12:30;;;;;;;9.47;3.10;;;;;12.80;100358.00;;;;9986660;29;20237;-81
2024/03/15 17:17:31;;;;;;;7.93;2.13;;;;;12.70;100359.00;;;;9955684;29;20838;-82
2024/03/15 17:22:32;;;;;;;9.17;2.53;;;;;12.50;100369.00;;;;9976863;29;20764;-82
2024/03/15 17:27:33;;;;;;;7.90;1.93;;;;;12.40;100374.00;;;;9959243;29;20871;-81
2024/03/15 17:32:37;;;;;;;12.30;2.90;;;;;12.30;100375.00;;;;9989373;29;20233;-82
2024/03/15 17:37:38;;;;;;;10.70;2.50;;;;;12.20;100387.00;;;;9973202;29;20238;-82
2024/03/15 17:42:39;;;;;;;6.97;2.70;;;;;12.10;100383.00;;;;9973265;29;20233;-82
2024/03/15 17:47:42;;;;;;;11.30;3.30;;;;;12.00;100383.00;;;;9960032;29;20817;-81
2024/03/15 17:52:43;;;;;;;12.10;3.27;;;;;11.90;100397.00;;;;9950318;29;20297;-81
2024/03/15 17:57:44;;;;;;;10.73;2.90;;;;;11.80;100385.00;;;;9947964;29;20233;-80
2024/03/15 18:02:45;;;;;;;8.60;2.70;;;;;11.70;100397.00;;;;9977271;29;20225;-81
2024/03/15 18:07:46;;;;;;;18.53;4.53;;;;;11.70;100401.00;;;;9963480;29;20257;-81
2024/03/15 18:12:48;;;;;;;15.07;3.83;;;;;11.70;100388.00;;;;9989540;29;20438;-81
2024/03/15 18:17:49;;;;;;;15.17;3.47;;;;;11.70;100401.00;;;;9992439;29;20237;-81
2024/03/15 18:22:50;;;;;;;14.13;2.87;;;;;11.70;100413.00;;;;9979336;29;20240;-81
2024/03/15 18:27:53;;;;;;;12.37;3.03;;;;;11.70;100404.00;;;;9941923;29;20975;-82
2024/03/15 18:32:54;;;;;;;14.70;3.00;;;;;11.70;100412.00;;;;9986510;29;20242;-81
2024/03/15 18:37:56;;;;;;;17.30;3.43;;;;;11.60;100418.00;;;;9974465;29;20233;-83
2024/03/15 18:42:58;;;;;;;11.53;3.50;;;;;11.60;100422.00;;;;9966253;29;20245;-81
2024/03/15 18:48:00;;;;;;;20.00;4.23;;;;;11.50;100429.00;;;;9979349;29;20241;-82
2024/03/15 18:53:01;;;;;;;20.77;4.13;;;;;11.40;100437.00;;;;9987704;29;20638;-82
2024/03/15 18:58:04;;;;;;;27.03;3.97;;;;;11.40;100425.00;;;;9964443;29;20931;-82
2024/03/15 19:03:05;;;;;;;18.83;3.97;;;;;11.40;100420.00;;;;9957476;29;20320;-82
2024/03/15 19:08:07;;;;;;;20.10;3.90;;;;;11.50;100423.00;;;;9985719;29;20641;-82
2024/03/15 19:13:09;;;;;;;18.73;3.63;;;;;11.60;100424.00;;;;9965011;29;20245;-81
2024/03/15 19:18:10;;;;;;;24.33;4.33;;;;;11.60;100431.00;;;;9991842;29;20333;-81
2024/03/15 19:23:12;;;;;;;16.47;3.77;;;;;11.60;100429.00;;;;9939177;29;20238;-82
2024/03/15 19:28:13;;;;;;;11.43;3.37;;;;;11.40;100428.00;;;;9965817;29;20269;-82
2024/03/15 19:33:14;;;;;;;20.70;3.63;;;;;11.40;100433.00;;;;9959791;29;20308;-82
2024/03/15 19:38:16;;;;;;;20.43;4.20;;;;;11.20;100439.00;;;;9943187;29;20863;-77
2024/03/15 19:43:18;;;;;;;17.40;3.17;;;;;11.10;100432.00;;;;9948247;29;20312;-76
2024/03/15 19:48:23;;;;;;;16.50;3.43;;;;;11.20;100424.00;;;;9952639;29;20248;-78
2024/03/15 19:53:24;;;;;;;19.33;3.73;;;;;11.30;100420.00;;;;9950887;29;20236;-78
2024/03/15 19:58:25;;;;;;;18.67;3.43;;;;;11.40;100416.00;;;;9977494;29;20252;-77
2024/03/15 20:03:26;;;;;;;21.23;3.50;;;;;11.50;100417.00;;;;9951243;29;20249;-77
2024/03/15 20:08:28;;;;;;;22.13;4.70;;;;;11.50;100423.00;;;;9963753;29;20233;-76
2024/03/15 20:13:29;;;;;;;18.20;4.43;;;;;11.60;100428.00;;;;9957709;29;20241;-79
2024/03/15 20:18:31;;;;;;;22.30;4.67;;;;;11.70;100434.00;;;;9954079;29;20313;-77
2024/03/15 20:23:32;;;;;;;17.50;3.60;;;;;11.70;100431.00;;;;9964030;29;20851;-76
2024/03/15 20:28:34;;;;;;;15.50;4.10;;;;;11.70;100433.00;;;;9963061;29;20370;-78
2024/03/15 20:33:36;;;;;;;12.77;3.03;;;;;11.80;100448.00;;;;9959971;29;20831;-79
2024/03/15 20:38:37;;;;;;;16.70;3.30;;;;;11.70;100442.00;;;;9955014;29;20312;-78
2024/03/15 20:43:39;;;;;;;11.50;3.23;;;;;11.70;100453.00;;;;9962636;29;20242;-79
2024/03/15 20:48:40;;;;;;;19.23;3.90;;;;;11.60;100451.00;;;;9952671;29;20391;-82
2024/03/15 20:53:51;;;;;;;14.27;3.03;;;;;11.50;100462.00;;;;9969187;29;20241;-82
2024/03/15 20:58:55;;;;;;;12.17;2.63;;;;;11.40;100459.00;;;;9960808;29;20659;-81
2024/03/15 21:03:56;;;;;;;8.97;1.83;;;;;11.20;100472.00;;;;9998707;29;20241;-82
2024/03/15 21:08:58;;;;;;;9.90;2.17;;;;;11.10;100476.00;;;;9976487;29;20711;-82
2024/03/15 21:13:59;;;;;;;6.00;1.60;;;;;11.00;100475.00;;;;9962222;29;20384;-81
2024/03/15 21:19:00;;;;;;;8.03;1.57;;;;;10.90;100480.00;;;;9996138;29;20229;-81
2024/03/15 21:24:04;;;;;;;8.30;2.20;;;;;10.70;100482.00;;;;9997841;29;20233;-82
2024/03/15 21:29:06;;;;;;;12.87;2.13;;;;;10.70;100483.00;;;;10000942;29;20234;-81
2024/03/15 21:34:07;;;;;;;10.50;2.10;;;;;10.60;100481.00;;;;9952158;29;20238;-81
2024/03/15 21:39:11;;;;;;;7.30;2.10;;;;;10.60;100474.00;;;;9971515;29;20262;-82
2024/03/15 21:44:13;;;;;;;11.70;2.33;;;;;10.50;100494.00;;;;9981602;29;20256;-82
2024/03/15 21:49:15;;;;;;;10.43;2.57;;;;;10.40;100491.00;;;;9949360;29;20234;-81
2024/03/15 21:54:16;;;;;;;12.33;2.37;;;;;10.50;100495.00;;;;9947029;29;20237;-81
2024/03/15 21:59:22;;;;;;;11.63;2.67;;;;;10.50;100491.00;;;;9967776;29;20691;-81
2024/03/15 22:04:30;;;;;;;8.80;3.00;;;;;10.70;100507.00;;;;9961701;29;20356;-81
2024/03/15 22:09:31;;;;;;;14.27;2.77;;;;;10.80;100491.00;;;;9983628;29;20242;-81
2024/03/15 22:14:33;;;;;;;11.60;3.43;;;;;10.90;100501.00;;;;9963289;29;20236;-81
2024/03/15 22:19:34;;;;;;;10.03;3.03;;;;;10.90;100497.00;;;;9961004;29;20245;-81
2024/03/15 22:24:35;;;;;;;16.30;3.20;;;;;10.80;100500.00;;;;9974377;29;20242;-81
2024/03/15 22:29:41;;;;;;;10.77;3.00;;;;;10.90;100515.00;;;;9950288;29;20306;-81
2024/03/15 22:34:44;;;;;;;14.63;3.50;;;;;10.90;100518.00;;;;9986373;29;20680;-81
2024/03/15 22:39:45;;;;;;;13.33;3.90;;;;;11.00;100523.00;;;;9947383;29;20249;-81
2024/03/15 22:44:46;;;;;;;15.60;3.50;;;;;11.10;100526.00;;;;9990677;29;20710;-81
2024/03/15 22:49:47;;;;;;;9.03;3.10;;;;;11.10;100534.00;;;;9984891;29;20604;-81
2024/03/15 22:54:48;;;;;;;13.43;2.70;;;;;11.10;100525.00;;;;9960921;29;20281;-81
2024/03/15 22:59:50;;;;;;;15.83;3.23;;;;;11.10;100538.00;;;;9964560;29;20913;-82
2024/03/15 23:04:53;;;;;;;15.20;3.87;;;;;11.10;100536.00;;;;9945761;29;20313;-81
2024/03/15 23:09:54;;;;;;;9.33;2.77;;;;;11.10;100539.00;;;;9960822;29;20242;-81
2024/03/15 23:14:55;;;;;;;15.03;3.43;;;;;11.00;100552.00;;;;9983451;29;20316;-81
2024/03/15 23:19:57;;;;;;;15.90;3.80;;;;;11.00;100549.00;;;;9945139;29;20282;-81
2024/03/15 23:24:58;;;;;;;19.30;3.97;;;;;11.00;100551.00;;;;9971862;29;20317;-81
2024/03/15 23:30:00;;;;;;;17.67;3.97;;;;;11.10;100551.00;;;;9966899;29;20239;-81
2024/03/15 23:35:04;;;;;;;11.43;3.03;;;;;11.10;100555.00;;;;9947844;29;20225;-81
2024/03/15 23:40:08;;;;;;;19.10;3.43;;;;;11.10;100550.00;;;;9979822;29;20249;-81
2024/03/15 23:45:09;;;;;;;18.43;3.30;;;;;11.10;100563.00;;;;9973201;29;20337;-81
2024/03/15 23:50:10;;;;;;;10.77;2.50;;;;;11.10;100568.00;;;;9969400;29;20237;-81
2024/03/15 23:55:12;;;;;;;14.33;3.20;;;;;11.00;100567.00;;;;9977966;29;20293;-81
